Time;durP1;ratioP1;P1;durP2;ratioP2;P2;SDS_P1;SDS_P2;PMS_P1;PMS_P2;Temp;Humidity;BMP_temperature;BMP_pressure;BME280_temperature;BME280_humidity;BME280_pressure;Samples;Min_cycle;Max_cycle;Signal;HPM_P1;HPM_P2
2022/05/05 00:01:32;;;;;;;7.38;4.82;;;8.50;99.90;;;;;;5001500;28;20864;-66
2022/05/05 00:03:58;;;;;;;6.22;3.50;;;8.50;99.90;;;;;;4998199;28;20062;-66
2022/05/05 00:06:24;;;;;;;4.63;3.40;;;8.40;99.90;;;;;;4999117;28;20049;-65
2022/05/05 00:08:50;;;;;;;4.70;3.75;;;8.30;99.90;;;;;;5002826;28;20831;-66
2022/05/05 00:16:44;;;;;;;6.78;4.65;;;8.30;99.90;;;;;;4995042;28;20258;-65
2022/05/05 00:19:10;;;;;;;6.10;4.55;;;8.20;99.90;;;;;;5000063;28;20569;-66
2022/05/05 00:21:38;;;;;;;8.32;4.40;;;8.10;99.90;;;;;;5005177;28;20049;-65
2022/05/05 00:24:04;;;;;;;6.68;4.20;;;8.00;99.90;;;;;;5002833;28;20810;-66
2022/05/05 00:26:30;;;;;;;12.05;4.70;;;8.00;99.90;;;;;;4996726;28;20670;-66
2022/05/05 00:28:55;;;;;;;7.95;4.55;;;8.00;99.90;;;;;;5005616;28;20050;-65
2022/05/05 00:31:21;;;;;;;5.68;4.38;;;8.10;99.90;;;;;;5014801;28;20044;-66
2022/05/05 00:33:46;;;;;;;6.35;3.92;;;8.10;99.90;;;;;;5013983;28;20103;-66
2022/05/05 00:36:12;;;;;;;5.65;3.30;;;8.10;99.90;;;;;;5013437;28;20045;-66
2022/05/05 00:38:37;;;;;;;8.07;3.50;;;8.10;99.90;;;;;;5014765;28;20131;-65
2022/05/05 00:41:03;;;;;;;8.02;4.07;;;8.10;99.90;;;;;;5012598;28;20053;-66
2022/05/05 00:43:30;;;;;;;6.20;4.53;;;8.00;99.90;;;;;;5014582;28;20060;-66
2022/05/05 00:45:55;;;;;;;10.10;3.83;;;8.00;99.90;;;;;;5013574;28;20045;-65
2022/05/05 00:48:25;;;;;;;7.55;4.03;;;8.00;99.90;;;;;;5014752;28;20045;-66
2022/05/05 00:50:50;;;;;;;6.25;4.40;;;8.10;99.90;;;;;;5015062;28;20045;-65
2022/05/05 00:53:16;;;;;;;5.60;3.78;;;8.10;99.90;;;;;;5013920;28;20516;-66
2022/05/05 00:55:42;;;;;;;5.05;3.50;;;8.10;99.90;;;;;;5007752;28;20048;-65
2022/05/05 00:58:08;;;;;;;4.75;3.50;;;8.10;99.90;;;;;;5016799;28;20064;-66
2022/05/05 01:00:34;;;;;;;4.18;3.08;;;8.10;99.90;;;;;;5018457;28;20088;-66
2022/05/05 01:03:00;;;;;;;5.50;3.50;;;8.10;99.90;;;;;;5017958;28;20124;-66
2022/05/05 01:05:28;;;;;;;6.50;4.47;;;8.00;99.90;;;;;;5017164;28;20524;-66
2022/05/05 01:07:57;;;;;;;7.25;3.78;;;8.00;99.90;;;;;;5010696;28;20084;-66
2022/05/05 01:10:25;;;;;;;5.55;4.28;;;8.00;99.90;;;;;;5017164;28;20041;-66
2022/05/05 01:12:51;;;;;;;5.93;3.58;;;8.00;99.90;;;;;;5017481;28;20056;-66
2022/05/05 01:15:17;;;;;;;8.60;5.38;;;8.00;99.90;;;;;;5017471;28;20182;-66
2022/05/05 01:17:43;;;;;;;9.07;4.60;;;8.00;99.90;;;;;;5018330;28;20715;-66
2022/05/05 01:20:17;;;;;;;6.93;4.68;;;8.10;99.90;;;;;;5018989;28;20041;-66
2022/05/05 01:22:43;;;;;;;7.15;3.97;;;8.10;99.90;;;;;;5017534;28;20128;-66
2022/05/05 01:28:12;;;;;;;5.88;4.30;;;8.10;99.90;;;;;;5018424;28;20057;-66
2022/05/05 01:30:39;;;;;;;6.65;4.00;;;8.10;99.90;;;;;;5017082;28;20245;-66
2022/05/05 01:33:16;;;;;;;7.18;3.95;;;8.10;99.90;;;;;;5018857;28;20045;-66
2022/05/05 01:35:43;;;;;;;10.10;4.90;;;8.10;99.90;;;;;;5016069;28;20049;-66
2022/05/05 01:38:14;;;;;;;7.13;5.03;;;8.10;99.90;;;;;;5010069;28;20045;-66
2022/05/05 01:40:39;;;;;;;8.93;5.13;;;8.10;99.90;;;;;;5017533;28;20226;-66
2022/05/05 01:43:07;;;;;;;6.22;4.93;;;8.10;99.90;;;;;;5017259;28;20624;-66
2022/05/05 01:45:32;;;;;;;8.80;4.28;;;8.10;99.90;;;;;;5016174;28;20053;-65
2022/05/05 01:47:58;;;;;;;6.43;4.70;;;8.10;99.90;;;;;;5016645;28;20072;-66
2022/05/05 01:50:25;;;;;;;7.32;3.58;;;8.10;99.90;;;;;;5016081;28;20056;-66
2022/05/05 01:52:54;;;;;;;8.75;4.45;;;8.10;99.90;;;;;;5017290;28;20258;-66
2022/05/05 01:55:21;;;;;;;7.32;4.28;;;8.10;99.90;;;;;;5017472;28;20077;-66
2022/05/05 01:57:46;;;;;;;4.03;3.42;;;8.10;99.90;;;;;;5010182;28;20055;-66
2022/05/05 02:00:13;;;;;;;5.63;3.83;;;8.10;99.90;;;;;;5018057;28;20087;-66
2022/05/05 02:02:38;;;;;;;10.43;3.53;;;8.00;99.90;;;;;;5017234;28;20045;-65
2022/05/05 02:05:06;;;;;;;7.00;3.50;;;8.00;99.90;;;;;;5016898;28;20057;-66
2022/05/05 02:07:31;;;;;;;7.03;4.03;;;8.00;99.90;;;;;;5017469;28;20053;-66
2022/05/05 02:10:01;;;;;;;6.32;4.40;;;8.00;99.90;;;;;;5016602;28;20059;-66
2022/05/05 02:12:31;;;;;;;4.68;4.15;;;8.00;99.90;;;;;;5016484;28;20150;-66
2022/05/05 02:14:57;;;;;;;6.32;4.07;;;8.00;99.90;;;;;;5017291;28;20064;-66
2022/05/05 02:17:23;;;;;;;7.70;4.75;;;8.00;99.90;;;;;;5017012;28;20041;-66
2022/05/05 02:19:48;;;;;;;11.05;4.78;;;8.00;99.90;;;;;;5017383;28;20409;-66
2022/05/05 02:22:14;;;;;;;6.47;4.15;;;7.90;99.90;;;;;;5016392;28;20057;-66
2022/05/05 02:24:40;;;;;;;6.63;4.47;;;7.90;99.90;;;;;;5017017;28;20167;-66
2022/05/05 02:27:06;;;;;;;7.00;3.92;;;7.90;99.90;;;;;;5015974;28;20076;-67
2022/05/05 02:29:31;;;;;;;11.32;4.03;;;7.90;99.90;;;;;;5016088;28;20107;-66
2022/05/05 02:31:57;;;;;;;8.75;5.10;;;7.90;99.90;;;;;;5016936;28;20038;-66
2022/05/05 02:34:23;;;;;;;6.43;4.15;;;7.90;99.90;;;;;;5016749;28;20045;-66
2022/05/05 02:39:33;;;;;;;9.75;4.88;;;7.80;99.90;;;;;;5014748;28;20809;-66
2022/05/05 02:41:59;;;;;;;6.90;4.30;;;7.90;99.90;;;;;;5017214;28;20053;-66
2022/05/05 02:44:26;;;;;;;6.00;5.18;;;7.80;99.90;;;;;;5016859;28;20042;-66
2022/05/05 02:46:52;;;;;;;7.28;4.18;;;7.70;99.90;;;;;;5016243;28;20265;-65
2022/05/05 02:49:17;;;;;;;6.07;4.30;;;7.70;99.90;;;;;;5016243;28;20107;-66
2022/05/05 02:51:43;;;;;;;9.43;4.47;;;7.70;99.90;;;;;;5016749;28;20049;-67
2022/05/05 02:56:53;;;;;;;6.68;5.55;;;7.60;99.90;;;;;;5015906;28;20546;-66
2022/05/05 02:59:19;;;;;;;7.35;4.68;;;7.60;99.90;;;;;;5015960;28;20072;-67
2022/05/05 03:01:46;;;;;;;6.60;3.53;;;7.60;99.90;;;;;;5016007;28;20469;-66
2022/05/05 03:04:11;;;;;;;7.05;4.50;;;7.60;99.90;;;;;;5016368;28;20053;-66
2022/05/05 03:06:37;;;;;;;5.80;3.97;;;7.70;99.90;;;;;;5016337;28;20079;-66
2022/05/05 03:09:03;;;;;;;13.02;4.72;;;7.70;99.90;;;;;;5016623;28;20041;-65
2022/05/05 03:11:29;;;;;;;8.88;5.00;;;7.70;99.90;;;;;;5015526;28;20040;-66
2022/05/05 03:13:54;;;;;;;5.78;4.03;;;7.70;99.90;;;;;;5014671;28;20044;-66
2022/05/05 03:16:20;;;;;;;6.82;5.00;;;7.80;99.90;;;;;;5015540;28;20075;-66
2022/05/05 03:18:45;;;;;;;6.90;5.18;;;7.80;99.90;;;;;;5016147;28;20052;-66
2022/05/05 03:21:11;;;;;;;8.13;4.97;;;7.80;99.90;;;;;;5016526;28;20054;-65
2022/05/05 03:23:37;;;;;;;7.47;5.63;;;7.80;99.90;;;;;;5016163;28;20049;-66
2022/05/05 03:26:02;;;;;;;8.05;4.72;;;7.80;99.90;;;;;;5016418;28;20048;-66
2022/05/05 03:28:28;;;;;;;8.77;4.47;;;7.80;99.90;;;;;;5016155;28;20133;-66
2022/05/05 03:30:53;;;;;;;4.88;4.38;;;7.80;99.90;;;;;;5016843;28;20056;-66
2022/05/05 03:33:19;;;;;;;5.70;4.60;;;7.80;99.90;;;;;;5016191;28;20049;-66
2022/05/05 03:35:44;;;;;;;5.85;4.25;;;7.80;99.90;;;;;;5015999;28;20052;-66
2022/05/05 03:38:10;;;;;;;5.05;4.30;;;7.80;99.90;;;;;;5016987;28;20080;-65
2022/05/05 03:40:36;;;;;;;5.05;3.97;;;7.80;99.90;;;;;;5016587;28;20497;-65
2022/05/05 03:43:01;;;;;;;8.13;4.45;;;7.80;99.90;;;;;;5014497;28;20057;-65
2022/05/05 03:45:27;;;;;;;6.25;4.63;;;7.80;99.90;;;;;;5015656;28;20049;-66
2022/05/05 03:47:52;;;;;;;7.40;4.25;;;7.80;99.90;;;;;;5016376;28;20054;-66
2022/05/05 03:50:18;;;;;;;6.70;4.53;;;7.80;99.90;;;;;;5014586;28;20405;-65
2022/05/05 03:52:43;;;;;;;5.20;4.32;;;7.80;99.90;;;;;;5015155;28;20054;-65
2022/05/05 03:55:09;;;;;;;11.25;5.30;;;7.80;99.90;;;;;;5014639;28;20042;-65
2022/05/05 03:57:34;;;;;;;8.88;5.57;;;7.80;99.90;;;;;;5015066;28;20060;-65
2022/05/05 04:00:00;;;;;;;5.60;4.25;;;7.80;99.90;;;;;;5014058;28;20049;-65
2022/05/05 04:02:26;;;;;;;7.30;3.75;;;7.90;99.90;;;;;;5015849;28;20898;-66
2022/05/05 04:04:51;;;;;;;8.57;4.30;;;7.90;99.90;;;;;;5013688;28;20064;-65
2022/05/05 04:07:17;;;;;;;8.23;5.15;;;7.90;99.90;;;;;;5015831;28;20037;-66
2022/05/05 04:09:42;;;;;;;9.90;4.80;;;8.00;99.90;;;;;;5014967;28;20592;-65
2022/05/05 04:12:08;;;;;;;6.50;4.50;;;8.00;99.90;;;;;;5015116;28;20045;-66
2022/05/05 04:14:34;;;;;;;5.95;4.50;;;8.00;99.90;;;;;;5015378;28;20049;-66
2022/05/05 04:17:01;;;;;;;5.95;4.53;;;8.10;99.90;;;;;;5013393;28;20144;-67
2022/05/05 04:19:27;;;;;;;4.65;4.22;;;8.10;99.90;;;;;;5014708;28;20107;-66
2022/05/05 04:21:52;;;;;;;6.05;4.55;;;8.10;99.90;;;;;;5014676;28;20041;-67
2022/05/05 04:24:18;;;;;;;13.88;6.32;;;8.20;99.90;;;;;;5013262;28;20131;-66
2022/05/05 04:26:45;;;;;;;7.03;4.05;;;8.20;99.90;;;;;;5014742;28;20060;-66
2022/05/05 04:29:11;;;;;;;6.35;4.60;;;7.90;99.90;;;;;;5014776;28;20049;-66
2022/05/05 04:31:37;;;;;;;7.75;4.38;;;8.30;99.90;;;;;;5013609;28;20060;-66
2022/05/05 04:34:04;;;;;;;7.22;4.07;;;8.30;99.90;;;;;;5013046;28;20049;-66
2022/05/05 04:36:34;;;;;;;5.43;3.85;;;8.30;99.90;;;;;;5014282;28;20417;-66
2022/05/05 04:39:04;;;;;;;7.35;3.65;;;8.30;99.90;;;;;;5013148;28;20063;-66
2022/05/05 04:41:30;;;;;;;4.93;4.30;;;8.40;99.90;;;;;;5014682;28;20041;-66
2022/05/05 04:43:55;;;;;;;5.85;4.32;;;8.40;99.90;;;;;;5014467;28;20076;-66
2022/05/05 04:46:21;;;;;;;7.38;4.95;;;8.50;99.90;;;;;;5014052;28;20057;-66
2022/05/05 04:48:48;;;;;;;7.90;5.72;;;8.50;99.90;;;;;;5012768;28;20480;-66
2022/05/05 04:51:14;;;;;;;6.40;5.00;;;8.50;99.90;;;;;;5013610;28;20057;-66
2022/05/05 04:53:40;;;;;;;11.88;5.10;;;8.30;99.90;;;;;;5014297;28;20056;-67
2022/05/05 04:56:06;;;;;;;6.78;4.97;;;8.20;99.90;;;;;;5013803;28;20050;-65
2022/05/05 04:58:33;;;;;;;8.98;4.63;;;8.10;99.90;;;;;;5014567;28;20065;-65
2022/05/05 05:00:59;;;;;;;9.48;6.05;;;8.00;99.90;;;;;;5014092;28;20045;-65
2022/05/05 05:03:35;;;;;;;9.80;5.22;;;8.10;99.90;;;;;;5014452;28;20091;-65
2022/05/05 05:06:02;;;;;;;9.90;6.15;;;8.10;99.90;;;;;;5013865;28;20048;-65
2022/05/05 05:08:28;;;;;;;8.38;5.47;;;8.00;99.90;;;;;;5013941;28;20057;-66
2022/05/05 05:10:53;;;;;;;13.85;7.00;;;8.00;99.90;;;;;;5015567;28;20049;-65
2022/05/05 05:13:19;;;;;;;12.52;6.22;;;8.00;99.90;;;;;;5013469;28;20049;-66
2022/05/05 05:15:44;;;;;;;8.45;5.68;;;8.00;99.90;;;;;;5012730;28;20056;-66
2022/05/05 05:18:10;;;;;;;11.27;5.85;;;8.10;99.90;;;;;;5014698;28;20045;-66
2022/05/05 05:20:35;;;;;;;7.93;5.45;;;8.10;99.90;;;;;;5012865;28;20053;-66
2022/05/05 05:23:01;;;;;;;7.82;5.47;;;8.20;99.90;;;;;;5012966;28;20056;-66
2022/05/05 05:25:26;;;;;;;6.28;5.40;;;8.30;99.90;;;;;;5015044;28;20049;-66
2022/05/05 05:27:52;;;;;;;12.60;6.93;;;8.30;99.90;;;;;;5014044;28;20052;-65
2022/05/05 05:30:17;;;;;;;5.88;5.28;;;8.40;99.90;;;;;;5014928;28;20045;-65
2022/05/05 05:32:43;;;;;;;8.25;5.97;;;8.50;99.90;;;;;;5012759;28;20049;-66
2022/05/05 05:35:08;;;;;;;10.07;6.47;;;8.60;99.90;;;;;;5014002;28;20152;-66
2022/05/05 05:37:34;;;;;;;8.70;5.53;;;8.60;99.90;;;;;;5012372;28;20053;-65
2022/05/05 05:40:00;;;;;;;9.40;6.82;;;8.70;99.90;;;;;;5014294;28;20140;-66
2022/05/05 05:42:25;;;;;;;12.60;6.97;;;8.70;99.90;;;;;;5014064;28;20838;-66
2022/05/05 05:44:51;;;;;;;10.00;5.22;;;8.80;99.90;;;;;;5017140;28;20057;-66
2022/05/05 05:47:16;;;;;;;10.48;6.50;;;8.80;99.90;;;;;;5017863;28;20089;-65
2022/05/05 05:49:42;;;;;;;10.20;5.88;;;8.80;99.90;;;;;;5015999;28;20476;-65
2022/05/05 05:52:08;;;;;;;11.25;6.65;;;8.80;99.90;;;;;;5016059;28;20107;-65
2022/05/05 05:54:33;;;;;;;8.13;6.30;;;9.00;99.90;;;;;;5016424;28;20080;-66
2022/05/05 05:56:59;;;;;;;11.18;6.13;;;9.10;99.90;;;;;;5017246;28;20042;-65
2022/05/05 05:59:24;;;;;;;6.18;4.93;;;9.20;99.90;;;;;;5016135;28;20736;-65
2022/05/05 06:04:34;;;;;;;11.85;6.80;;;9.40;99.90;;;;;;5017131;28;20149;-66
2022/05/05 06:07:00;;;;;;;8.45;5.88;;;9.50;99.90;;;;;;5017465;28;20049;-66
2022/05/05 06:09:26;;;;;;;10.35;6.03;;;9.60;99.90;;;;;;5015314;28;20045;-66
2022/05/05 06:11:51;;;;;;;13.95;6.72;;;9.70;99.90;;;;;;5015082;28;20052;-66
2022/05/05 06:14:17;;;;;;;8.07;5.20;;;9.90;99.90;;;;;;5013213;28;20862;-65
2022/05/05 06:16:43;;;;;;;10.60;7.20;;;9.90;99.90;;;;;;5013894;28;20794;-66
2022/05/05 06:19:08;;;;;;;9.13;6.25;;;9.90;99.90;;;;;;5013649;28;20080;-65
2022/05/05 06:21:34;;;;;;;9.63;7.07;;;9.90;99.90;;;;;;5014752;28;20620;-65
2022/05/05 06:23:59;;;;;;;9.52;6.57;;;9.90;99.90;;;;;;5011847;28;21006;-65
2022/05/05 06:26:27;;;;;;;8.73;6.15;;;10.00;99.90;;;;;;5013584;28;20045;-65
2022/05/05 06:28:54;;;;;;;7.13;5.45;;;10.10;99.90;;;;;;5014722;28;20053;-65
2022/05/05 06:31:19;;;;;;;8.90;6.15;;;10.20;99.90;;;;;;4999656;28;20170;-66
2022/05/05 06:33:45;;;;;;;8.30;6.15;;;10.30;99.90;;;;;;5002474;28;20470;-66
2022/05/05 06:36:11;;;;;;;10.20;6.13;;;10.30;99.90;;;;;;5001999;28;20366;-66
2022/05/05 06:38:36;;;;;;;8.93;5.80;;;10.50;99.90;;;;;;4994192;28;20053;-66
2022/05/05 06:41:02;;;;;;;10.38;6.03;;;10.50;99.90;;;;;;4994120;28;20814;-65
2022/05/05 06:43:29;;;;;;;7.43;5.38;;;10.70;99.90;;;;;;5000289;28;20068;-66
2022/05/05 06:45:55;;;;;;;10.82;5.50;;;10.70;99.90;;;;;;5011907;28;20526;-65
2022/05/05 06:48:20;;;;;;;7.03;5.28;;;10.80;99.90;;;;;;5013422;28;20049;-65
2022/05/05 06:50:46;;;;;;;12.48;5.85;;;10.90;99.90;;;;;;4994749;28;20057;-66
2022/05/05 06:53:11;;;;;;;7.63;5.50;;;11.00;99.90;;;;;;4993642;28;20754;-66
2022/05/05 06:55:37;;;;;;;8.30;5.75;;;11.00;99.90;;;;;;4993898;28;20707;-65
2022/05/05 06:58:02;;;;;;;6.55;5.25;;;11.10;99.90;;;;;;4994021;28;20850;-66
2022/05/05 07:01:51;;;;;;;7.47;4.82;;;11.20;99.90;;;;;;5007960;28;20048;-66
2022/05/05 07:03:14;;;;;;;6.65;5.18;;;11.30;99.90;;;;;;5005969;28;20057;-65
2022/05/05 07:05:39;;;;;;;9.90;5.93;;;11.40;99.90;;;;;;5004253;28;20807;-66
2022/05/05 07:08:05;;;;;;;6.28;5.47;;;11.50;99.90;;;;;;5003145;28;20168;-65
2022/05/05 07:13:15;;;;;;;7.38;5.85;;;11.60;99.90;;;;;;4998575;28;20149;-65
2022/05/05 07:15:40;;;;;;;6.68;5.18;;;11.60;99.90;;;;;;5001028;28;20037;-65
2022/05/05 07:18:06;;;;;;;7.72;5.30;;;11.70;99.90;;;;;;4995256;28;20042;-65
2022/05/05 07:20:32;;;;;;;5.15;4.30;;;11.80;99.90;;;;;;4996495;28;20192;-65
2022/05/05 07:22:58;;;;;;;6.93;4.47;;;11.90;99.90;;;;;;4993482;28;20042;-63
2022/05/05 07:25:24;;;;;;;6.88;4.95;;;12.10;99.90;;;;;;4993928;28;20058;-66
2022/05/05 07:27:49;;;;;;;11.32;5.38;;;12.20;99.90;;;;;;5000949;28;20060;-66
2022/05/05 07:30:15;;;;;;;11.52;5.70;;;12.40;99.90;;;;;;4995581;28;20033;-66
2022/05/05 07:32:41;;;;;;;7.32;4.18;;;12.50;99.90;;;;;;5006185;28;20176;-66
2022/05/05 07:35:07;;;;;;;8.23;4.25;;;12.60;99.90;;;;;;4998452;28;20046;-66
2022/05/05 07:37:33;;;;;;;7.63;3.83;;;12.80;99.90;;;;;;5000910;28;20053;-66
2022/05/05 07:39:59;;;;;;;9.20;4.57;;;12.90;99.90;;;;;;4989750;28;20049;-66
2022/05/05 07:42:24;;;;;;;6.43;3.50;;;13.00;99.90;;;;;;4990628;28;20045;-66
2022/05/05 07:44:50;;;;;;;5.53;3.40;;;13.10;99.90;;;;;;5009213;28;20049;-66
2022/05/05 07:47:15;;;;;;;5.40;3.50;;;13.20;99.90;;;;;;5011118;28;20076;-66
2022/05/05 07:49:41;;;;;;;6.05;3.25;;;13.30;99.90;;;;;;5010342;28;20045;-63
2022/05/05 07:52:06;;;;;;;9.77;4.32;;;13.40;99.90;;;;;;4999953;28;20046;-64
2022/05/05 07:54:35;;;;;;;5.03;3.67;;;13.60;99.90;;;;;;5003501;28;20843;-66
2022/05/05 07:57:01;;;;;;;5.20;3.78;;;13.70;99.90;;;;;;4998919;28;21038;-66
2022/05/05 07:59:27;;;;;;;6.13;2.97;;;13.80;99.90;;;;;;5008814;28;20053;-66
2022/05/05 08:01:53;;;;;;;5.18;3.20;;;13.90;99.90;;;;;;4997267;28;20800;-66
2022/05/05 08:04:19;;;;;;;3.53;3.08;;;14.00;99.30;;;;;;5003730;28;20057;-66
2022/05/05 08:06:44;;;;;;;4.78;3.00;;;14.10;99.70;;;;;;5002560;28;20679;-66
2022/05/05 08:09:11;;;;;;;5.95;3.20;;;14.20;97.40;;;;;;4999245;28;20941;-66
2022/05/05 08:11:37;;;;;;;5.53;3.00;;;13.90;98.00;;;;;;5000320;28;20037;-66
2022/05/05 08:14:04;;;;;;;3.88;3.13;;;14.30;97.40;;;;;;4994084;28;20056;-66
2022/05/05 08:16:29;;;;;;;7.38;2.95;;;14.50;97.70;;;;;;5006359;28;20045;-66
2022/05/05 08:18:55;;;;;;;4.13;2.72;;;14.70;97.50;;;;;;5002691;28;20048;-66
2022/05/05 08:21:21;;;;;;;4.10;2.75;;;14.90;97.50;;;;;;4999845;28;20104;-66
2022/05/05 08:23:46;;;;;;;4.35;2.72;;;15.00;97.10;;;;;;4998343;28;20046;-66
2022/05/05 08:28:56;;;;;;;5.80;2.80;;;15.50;96.70;;;;;;4995977;28;20849;-66
2022/05/05 08:31:22;;;;;;;4.43;3.05;;;15.70;96.30;;;;;;5003867;28;20758;-67
2022/05/05 08:33:47;;;;;;;4.35;2.67;;;15.80;95.70;;;;;;5014558;28;20049;-66
2022/05/05 08:36:13;;;;;;;5.13;3.45;;;15.90;95.20;;;;;;5013869;28;20766;-66
2022/05/05 08:38:39;;;;;;;5.63;3.72;;;16.10;95.00;;;;;;5013611;28;20485;-66
2022/05/05 08:41:10;;;;;;;7.00;3.50;;;16.40;94.80;;;;;;5013716;28;20412;-67
2022/05/05 08:43:35;;;;;;;4.68;2.90;;;16.50;93.00;;;;;;5013222;28;20049;-66
2022/05/05 08:46:03;;;;;;;6.10;3.40;;;16.60;94.20;;;;;;5013465;28;20053;-66
2022/05/05 08:48:31;;;;;;;4.32;3.20;;;16.60;92.20;;;;;;5012900;28;20084;-66
2022/05/05 08:51:00;;;;;;;6.45;3.25;;;16.80;93.60;;;;;;5005478;28;20050;-66
2022/05/05 08:53:35;;;;;;;3.63;2.67;;;16.80;93.30;;;;;;5004980;28;20049;-66
2022/05/05 08:56:01;;;;;;;4.80;3.35;;;17.10;91.20;;;;;;5000725;28;20038;-66
2022/05/05 08:58:28;;;;;;;5.60;3.08;;;17.20;92.50;;;;;;4995529;28;20041;-66
2022/05/05 09:00:55;;;;;;;4.53;3.33;;;17.30;92.80;;;;;;4999661;28;20057;-65
2022/05/05 09:03:21;;;;;;;9.55;3.47;;;17.50;92.80;;;;;;4992746;28;20436;-65
2022/05/05 09:05:51;;;;;;;7.97;3.75;;;17.60;90.30;;;;;;5012214;28;20049;-64
2022/05/05 09:08:25;;;;;;;4.53;3.10;;;17.50;90.70;;;;;;4998233;28;20045;-65
2022/05/05 09:10:58;;;;;;;4.15;3.25;;;17.70;90.80;;;;;;4994920;28;20041;-65
2022/05/05 09:13:26;;;;;;;5.95;3.13;;;17.90;91.20;;;;;;4998212;28;20085;-65
2022/05/05 09:15:53;;;;;;;5.78;2.90;;;18.20;91.30;;;;;;5000575;28;20438;-65
2022/05/05 09:18:25;;;;;;;5.65;2.85;;;18.50;91.30;;;;;;4994789;28;20046;-65
2022/05/05 09:20:51;;;;;;;3.90;3.30;;;19.00;91.00;;;;;;5004230;28;20045;-65
2022/05/05 09:23:36;;;;;;;5.43;3.17;;;19.40;91.10;;;;;;5001898;28;20041;-65
2022/05/05 09:26:06;;;;;;;6.03;3.92;;;19.50;86.00;;;;;;4999438;28;20675;-65
2022/05/05 09:28:35;;;;;;;4.97;3.45;;;19.50;88.80;;;;;;4997444;28;20048;-65
2022/05/05 09:31:08;;;;;;;4.93;3.60;;;19.80;90.30;;;;;;4997350;28;20052;-63
2022/05/05 09:33:34;;;;;;;5.93;2.88;;;19.60;88.40;;;;;;4998345;28;20049;-67
2022/05/05 09:36:08;;;;;;;5.55;3.17;;;19.30;89.10;;;;;;5003125;28;20053;-66
2022/05/05 09:39:03;;;;;;;6.32;3.80;;;19.00;88.50;;;;;;5017819;28;20058;-66
2022/05/05 09:41:43;;;;;;;4.85;3.00;;;19.10;84.40;;;;;;5017281;28;20057;-67
2022/05/05 09:44:24;;;;;;;6.78;3.25;;;19.40;85.70;;;;;;5017358;28;20053;-66
2022/05/05 09:46:50;;;;;;;4.97;3.30;;;19.80;88.30;;;;;;4999879;28;20057;-66
2022/05/05 09:49:19;;;;;;;5.03;4.00;;;20.40;87.90;;;;;;5016593;28;20064;-65
2022/05/05 09:57:45;;;;;;;4.78;3.60;;;20.70;83.40;;;;;;4993689;28;20057;-64
2022/05/05 10:00:45;;;;;;;4.07;3.20;;;20.40;82.30;;;;;;5008860;28;20045;-64
2022/05/05 10:06:06;;;;;;;6.03;3.38;;;20.70;85.60;;;;;;5016186;28;20053;-64
2022/05/05 10:08:45;;;;;;;10.23;3.78;;;21.30;85.30;;;;;;5014772;28;20067;-64
2022/05/05 10:11:12;;;;;;;5.70;3.22;;;21.30;77.10;;;;;;5017354;28;20095;-64
2022/05/05 10:13:38;;;;;;;5.95;3.70;;;21.40;83.20;;;;;;5017301;28;20050;-64
2022/05/05 10:16:05;;;;;;;7.55;4.35;;;21.60;82.80;;;;;;5015940;28;20080;-64
2022/05/05 10:18:35;;;;;;;6.75;3.85;;;21.50;81.30;;;;;;5010882;28;20136;-64
2022/05/05 10:21:01;;;;;;;4.75;3.28;;;21.60;81.30;;;;;;5001618;28;20084;-64
2022/05/05 10:23:46;;;;;;;5.50;3.58;;;21.70;80.40;;;;;;4648022;28;10000315;-64
2022/05/05 10:26:13;;;;;;;4.22;2.97;;;21.80;76.40;;;;;;4994186;28;20123;-65
2022/05/05 10:28:44;;;;;;;7.15;4.20;;;21.60;80.50;;;;;;4994641;28;20046;-65
2022/05/05 10:31:34;;;;;;;6.22;4.00;;;21.60;78.90;;;;;;4995584;28;20565;-64
2022/05/05 10:34:07;;;;;;;4.35;3.38;;;21.20;78.30;;;;;;4995665;28;20049;-64
2022/05/05 10:36:34;;;;;;;4.38;2.78;;;21.10;79.50;;;;;;4994354;28;20041;-64
2022/05/05 10:39:19;;;;;;;4.38;2.85;;;21.40;80.80;;;;;;5006322;28;20857;-64
2022/05/05 10:41:45;;;;;;;7.03;4.65;;;21.60;75.20;;;;;;4998518;28;20800;-64
2022/05/05 10:44:18;;;;;;;6.95;3.38;;;21.80;79.10;;;;;;4994081;28;20440;-64
2022/05/05 10:47:03;;;;;;;5.63;4.07;;;22.00;78.30;;;;;;4999690;28;20580;-64
2022/05/05 10:49:40;;;;;;;9.18;3.63;;;22.20;77.60;;;;;;4994734;28;20133;-64
2022/05/05 10:52:08;;;;;;;5.25;4.20;;;22.20;78.00;;;;;;4999026;28;20038;-65
2022/05/05 10:54:34;;;;;;;7.05;3.15;;;22.20;77.40;;;;;;4993034;28;20061;-64
2022/05/05 10:57:24;;;;;;;5.53;3.47;;;22.10;78.20;;;;;;4996876;28;20049;-67
2022/05/05 11:00:18;;;;;;;6.63;3.53;;;22.00;72.60;;;;;;4995133;28;20759;-64
2022/05/05 11:03:00;;;;;;;4.22;2.83;;;21.90;73.20;;;;;;4993691;28;20112;-62
2022/05/05 11:05:30;;;;;;;3.37;2.70;;;22.10;75.20;;;;;;4997196;28;20997;-65
2022/05/05 11:08:08;;;;;;;3.65;3.30;;;22.00;75.70;;;;;;5001769;28;20056;-65
2022/05/05 11:13:44;;;;;;;3.95;3.35;;;21.90;72.60;;;;;;4995169;28;20081;-65
2022/05/05 11:22:12;;;;;;;4.38;3.15;;;21.70;72.50;;;;;;4999816;28;20420;-62
2022/05/05 11:24:41;;;;;;;5.88;3.85;;;21.80;73.20;;;;;;4995156;28;20041;-63
2022/05/05 11:27:11;;;;;;;3.42;2.95;;;21.90;74.60;;;;;;4993547;28;20046;-62
2022/05/05 11:29:36;;;;;;;3.70;3.03;;;21.70;73.90;;;;;;4997118;28;20142;-62
2022/05/05 11:32:05;;;;;;;4.30;3.50;;;21.70;75.00;;;;;;4991828;28;20776;-62
2022/05/05 11:34:36;;;;;;;4.50;3.28;;;21.50;73.30;;;;;;4998307;28;20038;-62
2022/05/05 11:37:03;;;;;;;4.40;3.10;;;21.00;71.40;;;;;;5001674;28;20648;-62
2022/05/05 11:39:33;;;;;;;3.22;2.90;;;21.00;74.20;;;;;;4994660;28;20045;-62
2022/05/05 11:42:02;;;;;;;3.38;2.85;;;21.10;72.60;;;;;;4997424;28;20056;-64
2022/05/05 11:44:28;;;;;;;3.45;2.85;;;21.20;71.70;;;;;;4996734;28;20085;-64
2022/05/05 11:46:57;;;;;;;3.67;3.25;;;21.40;73.00;;;;;;5005593;28;20127;-65
2022/05/05 11:49:24;;;;;;;4.63;3.75;;;21.50;70.40;;;;;;5011715;28;20045;-62
2022/05/05 11:51:51;;;;;;;5.43;4.57;;;21.60;72.10;;;;;;5000163;28;20140;-63
2022/05/05 11:54:25;;;;;;;5.32;3.42;;;21.60;71.10;;;;;;5011031;28;20136;-63
2022/05/05 11:56:53;;;;;;;6.38;4.22;;;21.70;68.80;;;;;;5003540;28;20622;-63
2022/05/05 12:02:10;;;;;;;4.72;3.40;;;22.00;69.40;;;;;;4995971;28;20167;-63
2022/05/05 12:04:42;;;;;;;5.90;3.30;;;22.10;70.10;;;;;;4995623;28;20058;-62
2022/05/05 12:07:20;;;;;;;4.53;3.53;;;22.10;67.80;;;;;;5001534;28;20072;-63
2022/05/05 12:09:53;;;;;;;5.55;3.83;;;22.20;70.40;;;;;;4995145;28;20485;-63
2022/05/05 12:12:21;;;;;;;7.30;4.85;;;22.20;70.70;;;;;;4996457;28;20066;-62
2022/05/05 12:14:58;;;;;;;7.63;3.70;;;22.20;69.30;;;;;;4995202;28;20597;-63
2022/05/05 12:17:31;;;;;;;4.35;3.75;;;22.30;71.00;;;;;;4999138;28;20068;-62
2022/05/05 12:19:59;;;;;;;5.63;3.75;;;22.40;70.60;;;;;;5006686;28;20100;-62
2022/05/05 12:22:29;;;;;;;5.18;3.75;;;22.30;70.20;;;;;;5004938;28;20064;-63
2022/05/05 12:25:00;;;;;;;7.07;4.05;;;22.40;70.80;;;;;;5001175;28;20045;-63
2022/05/05 12:27:26;;;;;;;5.13;4.35;;;22.00;70.50;;;;;;4996095;28;20123;-63
2022/05/05 12:29:51;;;;;;;3.80;3.38;;;21.50;71.40;;;;;;4998698;28;20034;-63
2022/05/05 12:32:18;;;;;;;5.50;4.55;;;21.10;72.70;;;;;;4992953;28;20038;-63
2022/05/05 12:34:46;;;;;;;7.43;4.72;;;20.60;72.90;;;;;;4994353;28;20054;-63
2022/05/05 12:37:13;;;;;;;6.20;4.30;;;20.40;73.30;;;;;;5007054;28;20048;-64
2022/05/05 12:40:08;;;;;;;6.65;5.15;;;20.10;73.70;;;;;;5012577;28;20053;-64
2022/05/05 12:42:41;;;;;;;8.10;3.95;;;19.90;75.50;;;;;;5003786;28;20069;-62
2022/05/05 12:45:16;;;;;;;6.60;4.72;;;20.00;74.30;;;;;;4999117;28;20034;-62
2022/05/05 12:47:44;;;;;;;6.70;3.88;;;20.30;74.40;;;;;;4999288;28;20046;-62
2022/05/05 12:50:36;;;;;;;6.60;3.95;;;20.30;75.60;;;;;;4996215;28;20037;-62
2022/05/05 13:01:30;;;;;;;5.97;4.50;;;20.20;75.70;;;;;;5006893;28;20073;-62
2022/05/05 13:03:58;;;;;;;5.85;4.30;;;20.50;75.30;;;;;;5004932;28;20081;-62
2022/05/05 13:06:24;;;;;;;10.00;4.93;;;20.30;76.10;;;;;;5004783;28;20056;-62
2022/05/05 13:08:51;;;;;;;6.18;4.70;;;19.60;75.60;;;;;;4999820;28;20049;-62
2022/05/05 13:11:17;;;;;;;10.77;4.80;;;19.60;77.30;;;;;;5001268;28;20410;-62
2022/05/05 13:13:47;;;;;;;10.68;5.57;;;19.70;77.10;;;;;;5010749;28;20091;-62
2022/05/05 13:16:13;;;;;;;6.50;4.95;;;19.70;76.60;;;;;;5001345;28;20050;-64
2022/05/05 13:18:39;;;;;;;9.57;4.43;;;19.80;77.20;;;;;;5001907;28;20041;-64
2022/05/05 13:21:04;;;;;;;9.95;4.95;;;19.90;77.80;;;;;;5003772;28;20046;-64
2022/05/05 13:23:30;;;;;;;7.53;4.32;;;20.10;77.50;;;;;;5013198;28;20123;-64
2022/05/05 13:25:56;;;;;;;7.65;4.60;;;20.20;77.10;;;;;;5005463;28;20124;-64
2022/05/05 13:28:22;;;;;;;5.53;3.72;;;20.30;76.70;;;;;;5009569;28;20033;-64
2022/05/05 13:30:47;;;;;;;5.80;4.65;;;20.60;77.00;;;;;;4996144;28;20085;-64
2022/05/05 13:33:13;;;;;;;7.38;4.60;;;20.20;75.20;;;;;;5006238;28;20041;-64
2022/05/05 13:35:39;;;;;;;4.97;3.90;;;20.00;76.50;;;;;;5002986;28;20056;-64
2022/05/05 13:38:05;;;;;;;5.32;4.25;;;19.90;77.50;;;;;;4995784;28;20060;-64
2022/05/05 13:40:30;;;;;;;6.45;4.72;;;19.90;78.00;;;;;;5001564;28;20050;-64
2022/05/05 13:42:56;;;;;;;5.32;4.03;;;19.70;77.40;;;;;;5004561;28;20806;-62
2022/05/05 13:45:22;;;;;;;8.52;4.60;;;19.80;77.40;;;;;;5005414;28;20152;-62